Check out our new PWSWeather beta!
PWSweather.com
Personal Weather Stations
Station Observations
PWSLORIS
The Farm At Fox Bay, Loris, SC 29569

The Farm At Fox BayLoris, SC 29569

Lat: 34.067097, Lon: -78.86907

Elevation: 108

Station Type: Davis Vantage Pro2 with 24 hr. FARS and solar

http://www.lorisweather.com

High Low Average
Temperature 57.4°F14.1°C 46.2°F7.9°C 52.0°F11.1°C
Dew Point 48.8°F9.3°C 38.7°F3.7°C 44.6°F7.0°C
Winds 2.3 mph 3.7 kmh Calm Calm Calm SECalm SE
Wind Gusts 3.5 mph5.6 kmh -- --
Humidity 87% 64% 76%
Pressure 30.16 in1021.3 mb 29.97 in1014.9 mb -
Precipitation 0.04 in1.0 mm - -
Hour Temp Dew Point Humidity Winds Wind Gusts Pressure Precip Precip Rate Daily Precip Total
12:00 AM 46.2°F7.9°C 39.4°F4.1°C 77% Calm Calm -- 30.16 in1021.3 mb - 0.00 in0.0 mm 0.00 in0.0 mm
12:15 AM 46.5°F8.1°C 38.7°F3.7°C 74% Calm Calm -- 30.15 in1021.0 mb - 0.00 in0.0 mm 0.00 in0.0 mm
12:30 AM 46.9°F8.3°C 39.4°F4.1°C 75% Calm Calm -- 30.15 in1021.0 mb - 0.00 in0.0 mm 0.00 in0.0 mm
12:45 AM 47.0°F8.3°C 38.8°F3.8°C 73% Calm Calm -- 30.15 in1021.0 mb - 0.00 in0.0 mm 0.00 in0.0 mm
01:00 AM 47.3°F8.5°C 39.7°F4.3°C 75% Calm Calm -- 30.15 in1021.0 mb - 0.00 in0.0 mm 0.00 in0.0 mm
01:15 AM 47.7°F8.7°C 39.4°F4.1°C 73% Calm Calm -- 30.15 in1021.0 mb - 0.00 in0.0 mm 0.00 in0.0 mm
01:30 AM 48.1°F8.9°C 39.8°F4.3°C 73% Calm Calm -- 30.15 in1021.0 mb - 0.00 in0.0 mm 0.00 in0.0 mm
01:45 AM 48.4°F9.1°C 39.8°F4.3°C 72% Calm Calm -- 30.14 in1020.7 mb - 0.00 in0.0 mm 0.00 in0.0 mm
02:00 AM 48.7°F9.3°C 41.5°F5.3°C 76% Calm Calm -- 30.13 in1020.3 mb - 0.00 in0.0 mm 0.00 in0.0 mm
02:15 AM 49.2°F9.6°C 40.9°F4.9°C 73% Calm Calm -- 30.13 in1020.3 mb - 0.00 in0.0 mm 0.00 in0.0 mm
02:30 AM 49.1°F9.5°C 41.2°F5.1°C 74% Calm Calm -- 30.13 in1020.3 mb - 0.00 in0.0 mm 0.00 in0.0 mm
02:45 AM 49.1°F9.5°C 41.2°F5.1°C 74% Calm Calm -- 30.12 in1020.0 mb - 0.00 in0.0 mm 0.00 in0.0 mm
03:00 AM 49.0°F9.4°C 41.0°F5.0°C 74% Calm Calm -- 30.11 in1019.6 mb - 0.00 in0.0 mm 0.00 in0.0 mm
03:15 AM 49.1°F9.5°C 41.6°F5.3°C 75% Calm Calm -- 30.11 in1019.6 mb - 0.00 in0.0 mm 0.00 in0.0 mm
03:30 AM 49.1°F9.5°C 41.1°F5.1°C 74% Calm Calm -- 30.11 in1019.6 mb - 0.00 in0.0 mm 0.00 in0.0 mm
03:45 AM 48.8°F9.3°C 41.2°F5.1°C 75% Calm Calm -- 30.11 in1019.6 mb - 0.00 in0.0 mm 0.00 in0.0 mm
04:00 AM 48.8°F9.3°C 41.9°F5.5°C 77% Calm Calm -- 30.11 in1019.6 mb - 0.00 in0.0 mm 0.00 in0.0 mm
04:15 AM 48.7°F9.3°C 42.5°F5.8°C 79% Calm Calm -- 30.11 in1019.6 mb - 0.00 in0.0 mm 0.00 in0.0 mm
04:30 AM 48.6°F9.2°C 42.0°F5.6°C 78% Calm Calm -- 30.11 in1019.6 mb - 0.00 in0.0 mm 0.00 in0.0 mm
04:45 AM 48.4°F9.1°C 42.5°F5.8°C 80% Calm Calm -- 30.10 in1019.3 mb - 0.00 in0.0 mm 0.00 in0.0 mm
05:00 AM 48.2°F9.0°C 42.0°F5.6°C 79% Calm Calm -- 30.10 in1019.3 mb - 0.00 in0.0 mm 0.00 in0.0 mm
05:15 AM 48.6°F9.2°C 42.0°F5.6°C 78% Calm Calm -- 30.11 in1019.6 mb - 0.00 in0.0 mm 0.00 in0.0 mm
05:30 AM 48.2°F9.0°C 41.7°F5.4°C 78% Calm Calm -- 30.11 in1019.6 mb - 0.00 in0.0 mm 0.00 in0.0 mm
05:45 AM 48.2°F9.0°C 41.6°F5.3°C 78% Calm Calm -- 30.10 in1019.3 mb - 0.00 in0.0 mm 0.00 in0.0 mm
06:00 AM 48.3°F9.1°C 42.0°F5.6°C 79% Calm Calm -- 30.11 in1019.6 mb - 0.00 in0.0 mm 0.00 in0.0 mm
06:15 AM 48.2°F9.0°C 42.3°F5.7°C 80% Calm Calm -- 30.10 in1019.3 mb - 0.00 in0.0 mm 0.00 in0.0 mm
06:30 AM 48.3°F9.1°C 42.4°F5.8°C 80% Calm Calm -- 30.10 in1019.3 mb - 0.00 in0.0 mm 0.00 in0.0 mm
06:45 AM 48.2°F9.0°C 42.3°F5.7°C 80% Calm Calm -- 30.10 in1019.3 mb - 0.00 in0.0 mm 0.00 in0.0 mm
07:00 AM 47.9°F8.8°C 42.0°F5.6°C 80% Calm Calm -- 30.10 in1019.3 mb - 0.00 in0.0 mm 0.00 in0.0 mm
07:15 AM 48.3°F9.1°C 42.1°F5.6°C 79% Calm Calm -- 30.10 in1019.3 mb - 0.00 in0.0 mm 0.00 in0.0 mm
07:30 AM 48.3°F9.1°C 42.4°F5.8°C 80% Calm Calm -- 30.10 in1019.3 mb - 0.00 in0.0 mm 0.00 in0.0 mm
07:45 AM 48.7°F9.3°C 42.8°F6.0°C 80% Calm Calm -- 30.10 in1019.3 mb - 0.00 in0.0 mm 0.00 in0.0 mm
08:00 AM 49.2°F9.6°C 43.3°F6.3°C 80% Calm Calm -- 30.11 in1019.6 mb - 0.00 in0.0 mm 0.00 in0.0 mm
08:15 AM 49.7°F9.8°C 43.1°F6.2°C 78% Calm Calm -- 30.11 in1019.6 mb - 0.00 in0.0 mm 0.00 in0.0 mm
08:30 AM 50.0°F10.0°C 43.0°F6.1°C 77% Calm Calm -- 30.12 in1020.0 mb - 0.00 in0.0 mm 0.00 in0.0 mm
08:45 AM 50.4°F10.2°C 43.8°F6.6°C 78% Calm Calm -- 30.12 in1020.0 mb - 0.00 in0.0 mm 0.00 in0.0 mm
09:00 AM 51.6°F10.9°C 44.0°F6.7°C 75% Calm Calm -- 30.12 in1020.0 mb - 0.00 in0.0 mm 0.00 in0.0 mm
09:15 AM 53.2°F11.8°C 44.8°F7.1°C 73% Calm Calm -- 30.11 in1019.6 mb - 0.00 in0.0 mm 0.00 in0.0 mm
09:30 AM 53.8°F12.1°C 43.9°F6.6°C 69% Calm Calm -- 30.11 in1019.6 mb - 0.00 in0.0 mm 0.00 in0.0 mm
09:45 AM 53.9°F12.2°C 44.0°F6.7°C 69% Calm Calm -- 30.11 in1019.6 mb - 0.00 in0.0 mm 0.00 in0.0 mm
10:00 AM 54.5°F12.5°C 44.5°F6.9°C 69% Calm Calm -- 30.11 in1019.6 mb - 0.00 in0.0 mm 0.00 in0.0 mm
10:15 AM 55.1°F12.8°C 44.3°F6.8°C 67% Calm Calm -- 30.11 in1019.6 mb - 0.00 in0.0 mm 0.00 in0.0 mm
10:30 AM 55.2°F12.9°C 44.0°F6.7°C 66% Calm Calm -- 30.11 in1019.6 mb - 0.00 in0.0 mm 0.00 in0.0 mm
10:45 AM 55.0°F12.8°C 44.2°F6.8°C 67% Calm Calm -- 30.11 in1019.6 mb - 0.00 in0.0 mm 0.00 in0.0 mm
11:00 AM 55.8°F13.2°C 44.2°F6.8°C 65% Calm Calm -- 30.12 in1020.0 mb - 0.00 in0.0 mm 0.00 in0.0 mm
11:15 AM 55.5°F13.1°C 44.3°F6.8°C 66% Calm Calm -- 30.12 in1020.0 mb - 0.00 in0.0 mm 0.00 in0.0 mm
11:30 AM 56.4°F13.6°C 44.4°F6.9°C 64% Calm Calm -- 30.12 in1020.0 mb - 0.00 in0.0 mm 0.00 in0.0 mm
11:45 AM 56.3°F13.5°C 45.4°F7.4°C 67% Calm Calm -- 30.12 in1020.0 mb - 0.00 in0.0 mm 0.00 in0.0 mm
12:00 PM 55.5°F13.1°C 47.7°F8.7°C 75% Calm Calm -- 30.11 in1019.6 mb - 0.00 in0.0 mm 0.00 in0.0 mm
12:15 PM 55.9°F13.3°C 45.1°F7.3°C 67% Calm Calm -- 30.10 in1019.3 mb - 0.00 in0.0 mm 0.00 in0.0 mm
12:30 PM 56.2°F13.4°C 45.0°F7.2°C 66% Calm Calm -- 30.09 in1019.0 mb - 0.00 in0.0 mm 0.00 in0.0 mm
12:45 PM 56.1°F13.4°C 45.3°F7.4°C 67% Calm Calm -- 30.08 in1018.6 mb - 0.00 in0.0 mm 0.00 in0.0 mm
01:00 PM 56.1°F13.4°C 46.1°F7.8°C 69% Calm Calm -- 30.07 in1018.3 mb - 0.00 in0.0 mm 0.00 in0.0 mm
01:15 PM 56.2°F13.4°C 45.8°F7.7°C 68% Calm Calm -- 30.06 in1017.9 mb - 0.00 in0.0 mm 0.00 in0.0 mm
01:30 PM 56.1°F13.4°C 44.9°F7.2°C 66% Calm Calm -- 30.05 in1017.6 mb - 0.00 in0.0 mm 0.00 in0.0 mm
01:45 PM 56.6°F13.7°C 45.4°F7.4°C 66% Calm Calm -- 30.05 in1017.6 mb - 0.00 in0.0 mm 0.00 in0.0 mm
02:00 PM 56.8°F13.8°C 45.5°F7.5°C 66% Calm Calm -- 30.04 in1017.3 mb - 0.00 in0.0 mm 0.00 in0.0 mm
02:15 PM 57.4°F14.1°C 46.9°F8.3°C 68% Calm Calm -- 30.04 in1017.3 mb - 0.00 in0.0 mm 0.00 in0.0 mm
02:30 PM 57.4°F14.1°C 46.5°F8.1°C 67% Calm Calm -- 30.03 in1016.9 mb - 0.00 in0.0 mm 0.00 in0.0 mm
02:45 PM 57.4°F14.1°C 46.1°F7.8°C 66% Calm Calm -- 30.04 in1017.3 mb - 0.00 in0.0 mm 0.00 in0.0 mm
03:00 PM 57.4°F14.1°C 46.2°F7.9°C 66% Calm Calm -- 30.04 in1017.3 mb - 0.00 in0.0 mm 0.00 in0.0 mm
03:15 PM 57.3°F14.1°C 46.4°F8.0°C 67% Calm Calm -- 30.03 in1016.9 mb - 0.00 in0.0 mm 0.00 in0.0 mm
03:30 PM 57.1°F13.9°C 46.6°F8.1°C 68% Calm Calm -- 30.04 in1017.3 mb - 0.00 in0.0 mm 0.00 in0.0 mm
03:45 PM 56.9°F13.8°C 47.2°F8.4°C 70% Calm Calm -- 30.04 in1017.3 mb - 0.00 in0.0 mm 0.00 in0.0 mm
04:00 PM 56.5°F13.6°C 47.2°F8.4°C 71% Calm Calm -- 30.04 in1017.3 mb - 0.00 in0.0 mm 0.00 in0.0 mm
04:15 PM 55.8°F13.2°C 48.0°F8.9°C 75% Calm Calm -- 30.03 in1016.9 mb - 0.00 in0.0 mm 0.00 in0.0 mm
04:30 PM 54.3°F12.4°C 48.3°F9.1°C 80% Calm Calm -- 30.04 in1017.3 mb - 0.01 in0.3 mm 0.01 in0.3 mm
04:45 PM 53.6°F12.0°C 47.2°F8.4°C 79% Calm Calm -- 30.04 in1017.3 mb - 0.01 in0.3 mm 0.01 in0.3 mm
05:00 PM 53.8°F12.1°C 47.4°F8.6°C 79% Calm Calm -- 30.03 in1016.9 mb - 0.02 in0.5 mm 0.02 in0.5 mm
05:15 PM 53.7°F12.1°C 47.3°F8.5°C 79% Calm Calm -- 30.03 in1016.9 mb - 0.02 in0.5 mm 0.02 in0.5 mm
05:30 PM 53.5°F11.9°C 47.1°F8.4°C 79% Calm Calm -- 30.02 in1016.6 mb - 0.01 in0.3 mm 0.02 in0.5 mm
05:45 PM 53.4°F11.9°C 46.7°F8.2°C 78% Calm Calm -- 30.03 in1016.9 mb - 0.01 in0.3 mm 0.02 in0.5 mm
06:00 PM 53.2°F11.8°C 46.9°F8.3°C 79% Calm Calm -- 30.03 in1016.9 mb - 0.00 in0.0 mm 0.02 in0.5 mm
06:15 PM 52.7°F11.5°C 46.7°F8.2°C 80% Calm Calm -- 30.04 in1017.3 mb - 0.00 in0.0 mm 0.02 in0.5 mm
06:30 PM 52.5°F11.4°C 46.8°F8.2°C 81% Calm Calm -- 30.03 in1016.9 mb - 0.01 in0.3 mm 0.03 in0.8 mm
06:45 PM 52.5°F11.4°C 47.1°F8.4°C 82% Calm Calm -- 30.04 in1017.3 mb - 0.01 in0.3 mm 0.03 in0.8 mm
07:00 PM 52.3°F11.3°C 47.2°F8.4°C 83% Calm Calm -- 30.04 in1017.3 mb - 0.01 in0.3 mm 0.03 in0.8 mm
07:15 PM 52.0°F11.1°C 47.6°F8.7°C 85% Calm Calm -- 30.03 in1016.9 mb - 0.01 in0.3 mm 0.03 in0.8 mm
07:30 PM 52.0°F11.1°C 47.6°F8.7°C 85% Calm Calm -- 30.03 in1016.9 mb - 0.00 in0.0 mm 0.03 in0.8 mm
07:45 PM 51.8°F11.0°C 47.4°F8.6°C 85% Calm Calm -- 30.02 in1016.6 mb - 0.00 in0.0 mm 0.03 in0.8 mm
08:00 PM 51.7°F10.9°C 47.3°F8.5°C 85% Calm Calm -- 30.01 in1016.3 mb - 0.00 in0.0 mm 0.03 in0.8 mm
08:15 PM 51.5°F10.8°C 47.1°F8.4°C 85% 1.2 mph ESE1.9 kmh ESE 3.5 mph5.6 kmh 29.99 in1015.6 mb - 0.00 in0.0 mm 0.03 in0.8 mm
08:30 PM 51.5°F10.8°C 46.8°F8.2°C 84% 2.3 mph ESE3.7 kmh ESE 3.5 mph5.6 kmh 29.98 in1015.2 mb - 0.00 in0.0 mm 0.03 in0.8 mm
08:45 PM 51.6°F10.9°C 46.9°F8.3°C 84% Calm Calm 2.3 mph3.7 kmh 29.98 in1015.2 mb - 0.00 in0.0 mm 0.03 in0.8 mm
09:00 PM 51.7°F10.9°C 47.0°F8.3°C 84% Calm Calm -- 29.99 in1015.6 mb - 0.00 in0.0 mm 0.03 in0.8 mm
09:15 PM 51.7°F10.9°C 47.3°F8.5°C 85% Calm Calm -- 29.99 in1015.6 mb - 0.00 in0.0 mm 0.03 in0.8 mm
09:30 PM 51.8°F11.0°C 47.4°F8.6°C 85% Calm Calm -- 30.00 in1015.9 mb - 0.00 in0.0 mm 0.03 in0.8 mm
09:45 PM 51.6°F10.9°C 47.3°F8.5°C 85% Calm Calm -- 29.99 in1015.6 mb - 0.00 in0.0 mm 0.03 in0.8 mm
10:00 PM 51.6°F10.9°C 47.5°F8.6°C 86% Calm Calm -- 29.98 in1015.2 mb - 0.00 in0.0 mm 0.03 in0.8 mm
10:15 PM 51.7°F10.9°C 47.6°F8.7°C 86% Calm Calm -- 29.97 in1014.9 mb - 0.00 in0.0 mm 0.03 in0.8 mm
10:30 PM 51.8°F11.0°C 47.7°F8.7°C 86% Calm Calm -- 29.97 in1014.9 mb - 0.00 in0.0 mm 0.03 in0.8 mm
10:45 PM 51.7°F10.9°C 47.7°F8.7°C 86% Calm Calm -- 29.97 in1014.9 mb - 0.00 in0.0 mm 0.03 in0.8 mm
11:00 PM 51.9°F11.1°C 48.1°F8.9°C 87% Calm Calm -- 29.97 in1014.9 mb - 0.00 in0.0 mm 0.03 in0.8 mm
11:15 PM 52.2°F11.2°C 48.4°F9.1°C 87% 1.2 mph NNE1.9 kmh NNE 3.5 mph5.6 kmh 29.99 in1015.6 mb - 0.00 in0.0 mm 0.03 in0.8 mm
11:30 PM 52.6°F11.4°C 48.8°F9.3°C 87% Calm Calm -- 30.00 in1015.9 mb - 0.00 in0.0 mm 0.03 in0.8 mm
11:45 PM 52.5°F11.4°C 48.7°F9.3°C 87% Calm Calm -- 29.98 in1015.2 mb - 0.01 in0.3 mm 0.04 in1.0 mm